sensor_id;sensor_type;location;lat;lon;timestamp;P1;durP1;ratioP1;P2;durP2;ratioP2
23222;SDS011;11780;13.904;100.620;2022-09-09T00:01:11;22.10;;;19.83;;
23222;SDS011;11780;13.904;100.620;2022-09-09T00:07:03;22.42;;;20.02;;
23222;SDS011;11780;13.904;100.620;2022-09-09T00:12:35;23.67;;;19.95;;
23222;SDS011;11780;13.904;100.620;2022-09-09T00:15:12;23.95;;;19.05;;
23222;SDS011;11780;13.904;100.620;2022-09-09T00:17:54;23.17;;;19.33;;
23222;SDS011;11780;13.904;100.620;2022-09-09T00:21:05;22.38;;;19.98;;
23222;SDS011;11780;13.904;100.620;2022-09-09T00:23:30;21.25;;;19.00;;
23222;SDS011;11780;13.904;100.620;2022-09-09T00:29:10;22.83;;;19.35;;
23222;SDS011;11780;13.904;100.620;2022-09-09T00:32:19;22.60;;;18.02;;
23222;SDS011;11780;13.904;100.620;2022-09-09T00:35:03;21.73;;;18.23;;
23222;SDS011;11780;13.904;100.620;2022-09-09T00:38:00;17.25;;;15.35;;
23222;SDS011;11780;13.904;100.620;2022-09-09T00:40:53;19.85;;;16.60;;
23222;SDS011;11780;13.904;100.620;2022-09-09T00:43:32;16.38;;;14.60;;
23222;SDS011;11780;13.904;100.620;2022-09-09T00:57:58;13.60;;;11.60;;
23222;SDS011;11780;13.904;100.620;2022-09-09T01:00:44;13.57;;;11.77;;
23222;SDS011;11780;13.904;100.620;2022-09-09T01:03:53;16.73;;;11.70;;
23222;SDS011;11780;13.904;100.620;2022-09-09T01:06:35;14.55;;;10.88;;
23222;SDS011;11780;13.904;100.620;2022-09-09T01:12:16;12.80;;;10.10;;
23222;SDS011;11780;13.904;100.620;2022-09-09T01:15:09;11.50;;;9.82;;
23222;SDS011;11780;13.904;100.620;2022-09-09T01:23:13;11.80;;;8.57;;
23222;SDS011;11780;13.904;100.620;2022-09-09T01:26:30;11.48;;;8.73;;
23222;SDS011;11780;13.904;100.620;2022-09-09T01:29:12;10.25;;;8.50;;
23222;SDS011;11780;13.904;100.620;2022-09-09T01:32:00;10.63;;;9.00;;
23222;SDS011;11780;13.904;100.620;2022-09-09T01:34:33;9.57;;;7.95;;
23222;SDS011;11780;13.904;100.620;2022-09-09T01:37:09;10.25;;;7.90;;
23222;SDS011;11780;13.904;100.620;2022-09-09T01:39:42;10.13;;;8.23;;
23222;SDS011;11780;13.904;100.620;2022-09-09T01:42:15;11.63;;;8.65;;
23222;SDS011;11780;13.904;100.620;2022-09-09T01:44:46;8.90;;;7.60;;
23222;SDS011;11780;13.904;100.620;2022-09-09T01:47:17;10.00;;;8.60;;
23222;SDS011;11780;13.904;100.620;2022-09-09T01:50:07;12.98;;;8.25;;
23222;SDS011;11780;13.904;100.620;2022-09-09T01:52:41;8.13;;;6.85;;
23222;SDS011;11780;13.904;100.620;2022-09-09T01:55:28;8.57;;;7.65;;
23222;SDS011;11780;13.904;100.620;2022-09-09T02:01:07;8.48;;;7.30;;
23222;SDS011;11780;13.904;100.620;2022-09-09T02:03:59;10.32;;;7.22;;
23222;SDS011;11780;13.904;100.620;2022-09-09T02:06:38;12.35;;;6.85;;
23222;SDS011;11780;13.904;100.620;2022-09-09T02:09:23;10.02;;;6.55;;
23222;SDS011;11780;13.904;100.620;2022-09-09T02:12:02;9.52;;;6.30;;
23222;SDS011;11780;13.904;100.620;2022-09-09T02:14:53;7.97;;;5.53;;
23222;SDS011;11780;13.904;100.620;2022-09-09T02:17:37;8.52;;;5.90;;
23222;SDS011;11780;13.904;100.620;2022-09-09T02:20:15;8.25;;;5.97;;
23222;SDS011;11780;13.904;100.620;2022-09-09T02:22:56;7.63;;;5.88;;
23222;SDS011;11780;13.904;100.620;2022-09-09T02:25:29;10.57;;;6.15;;
23222;SDS011;11780;13.904;100.620;2022-09-09T02:28:10;10.80;;;6.63;;
23222;SDS011;11780;13.904;100.620;2022-09-09T02:30:44;7.38;;;6.63;;
23222;SDS011;11780;13.904;100.620;2022-09-09T02:33:16;9.10;;;6.28;;
23222;SDS011;11780;13.904;100.620;2022-09-09T02:35:50;7.97;;;6.53;;
23222;SDS011;11780;13.904;100.620;2022-09-09T02:38:24;7.32;;;5.63;;
23222;SDS011;11780;13.904;100.620;2022-09-09T02:41:07;6.55;;;5.45;;
23222;SDS011;11780;13.904;100.620;2022-09-09T02:43:38;7.28;;;5.15;;
23222;SDS011;11780;13.904;100.620;2022-09-09T02:49:08;7.03;;;5.43;;
23222;SDS011;11780;13.904;100.620;2022-09-09T02:54:28;6.60;;;4.63;;
23222;SDS011;11780;13.904;100.620;2022-09-09T02:57:23;6.53;;;5.25;;
23222;SDS011;11780;13.904;100.620;2022-09-09T02:59:59;7.40;;;5.40;;
23222;SDS011;11780;13.904;100.620;2022-09-09T03:02:33;7.65;;;5.07;;
23222;SDS011;11780;13.904;100.620;2022-09-09T03:05:06;7.25;;;4.88;;
23222;SDS011;11780;13.904;100.620;2022-09-09T03:07:37;6.50;;;4.45;;
23222;SDS011;11780;13.904;100.620;2022-09-09T03:10:09;7.38;;;5.32;;
23222;SDS011;11780;13.904;100.620;2022-09-09T03:12:41;7.15;;;5.10;;
23222;SDS011;11780;13.904;100.620;2022-09-09T03:15:11;6.80;;;4.70;;
23222;SDS011;11780;13.904;100.620;2022-09-09T03:17:43;7.22;;;4.90;;
23222;SDS011;11780;13.904;100.620;2022-09-09T03:20:13;7.72;;;4.40;;
23222;SDS011;11780;13.904;100.620;2022-09-09T03:22:44;7.90;;;4.73;;
23222;SDS011;11780;13.904;100.620;2022-09-09T03:25:14;7.88;;;4.15;;
23222;SDS011;11780;13.904;100.620;2022-09-09T03:27:45;9.32;;;4.15;;
23222;SDS011;11780;13.904;100.620;2022-09-09T03:30:16;8.38;;;4.25;;
23222;SDS011;11780;13.904;100.620;2022-09-09T03:32:46;6.47;;;4.00;;
23222;SDS011;11780;13.904;100.620;2022-09-09T03:35:17;5.80;;;4.22;;
23222;SDS011;11780;13.904;100.620;2022-09-09T03:37:48;6.57;;;4.05;;
23222;SDS011;11780;13.904;100.620;2022-09-09T03:40:20;5.47;;;3.38;;
23222;SDS011;11780;13.904;100.620;2022-09-09T03:42:50;6.47;;;3.45;;
23222;SDS011;11780;13.904;100.620;2022-09-09T03:45:20;4.88;;;3.22;;
23222;SDS011;11780;13.904;100.620;2022-09-09T03:47:51;4.50;;;3.47;;
23222;SDS011;11780;13.904;100.620;2022-09-09T03:50:21;5.43;;;3.53;;
23222;SDS011;11780;13.904;100.620;2022-09-09T03:52:55;3.80;;;2.83;;
23222;SDS011;11780;13.904;100.620;2022-09-09T03:55:25;5.65;;;3.00;;
23222;SDS011;11780;13.904;100.620;2022-09-09T03:57:56;4.07;;;3.55;;
23222;SDS011;11780;13.904;100.620;2022-09-09T04:00:26;4.75;;;3.25;;
23222;SDS011;11780;13.904;100.620;2022-09-09T04:02:58;4.25;;;2.90;;
23222;SDS011;11780;13.904;100.620;2022-09-09T04:05:28;4.32;;;3.25;;
23222;SDS011;11780;13.904;100.620;2022-09-09T04:07:59;4.50;;;2.95;;
23222;SDS011;11780;13.904;100.620;2022-09-09T04:10:30;5.65;;;3.20;;
23222;SDS011;11780;13.904;100.620;2022-09-09T04:13:02;6.07;;;3.05;;
23222;SDS011;11780;13.904;100.620;2022-09-09T04:15:33;4.53;;;3.10;;
23222;SDS011;11780;13.904;100.620;2022-09-09T04:18:05;6.20;;;2.90;;
23222;SDS011;11780;13.904;100.620;2022-09-09T04:20:36;4.30;;;2.83;;
23222;SDS011;11780;13.904;100.620;2022-09-09T04:23:08;4.03;;;2.88;;
23222;SDS011;11780;13.904;100.620;2022-09-09T04:25:43;6.03;;;3.03;;
23222;SDS011;11780;13.904;100.620;2022-09-09T04:28:15;6.00;;;2.95;;
23222;SDS011;11780;13.904;100.620;2022-09-09T04:30:47;5.45;;;3.10;;
23222;SDS011;11780;13.904;100.620;2022-09-09T04:33:18;3.53;;;2.28;;
23222;SDS011;11780;13.904;100.620;2022-09-09T04:35:50;4.75;;;2.90;;
23222;SDS011;11780;13.904;100.620;2022-09-09T04:38:25;5.43;;;2.70;;
23222;SDS011;11780;13.904;100.620;2022-09-09T04:40:55;4.63;;;2.80;;
23222;SDS011;11780;13.904;100.620;2022-09-09T04:43:26;4.82;;;2.50;;
23222;SDS011;11780;13.904;100.620;2022-09-09T04:45:57;5.03;;;2.80;;
23222;SDS011;11780;13.904;100.620;2022-09-09T04:48:30;4.30;;;2.50;;
23222;SDS011;11780;13.904;100.620;2022-09-09T04:51:04;5.28;;;2.65;;
23222;SDS011;11780;13.904;100.620;2022-09-09T04:53:35;2.90;;;2.38;;
23222;SDS011;11780;13.904;100.620;2022-09-09T04:56:11;6.53;;;2.80;;
23222;SDS011;11780;13.904;100.620;2022-09-09T04:58:49;4.13;;;2.42;;
23222;SDS011;11780;13.904;100.620;2022-09-09T05:01:22;4.40;;;2.80;;
23222;SDS011;11780;13.904;100.620;2022-09-09T05:04:01;4.57;;;2.92;;
23222;SDS011;11780;13.904;100.620;2022-09-09T05:06:33;3.42;;;2.60;;
23222;SDS011;11780;13.904;100.620;2022-09-09T05:09:05;6.03;;;2.50;;
23222;SDS011;11780;13.904;100.620;2022-09-09T05:11:36;3.53;;;2.38;;
23222;SDS011;11780;13.904;100.620;2022-09-09T05:14:14;4.88;;;2.78;;
23222;SDS011;11780;13.904;100.620;2022-09-09T05:16:45;3.80;;;2.65;;
23222;SDS011;11780;13.904;100.620;2022-09-09T05:21:49;6.57;;;2.58;;
23222;SDS011;11780;13.904;100.620;2022-09-09T05:24:30;5.07;;;2.30;;
23222;SDS011;11780;13.904;100.620;2022-09-09T05:27:03;2.95;;;2.40;;
23222;SDS011;11780;13.904;100.620;2022-09-09T05:29:35;6.32;;;2.67;;
23222;SDS011;11780;13.904;100.620;2022-09-09T05:32:07;5.63;;;2.38;;
23222;SDS011;11780;13.904;100.620;2022-09-09T05:34:44;3.13;;;1.90;;
23222;SDS011;11780;13.904;100.620;2022-09-09T05:37:16;2.53;;;1.73;;
23222;SDS011;11780;13.904;100.620;2022-09-09T05:42:18;3.95;;;2.22;;
23222;SDS011;11780;13.904;100.620;2022-09-09T05:44:49;3.00;;;2.17;;
23222;SDS011;11780;13.904;100.620;2022-09-09T05:47:20;4.50;;;1.67;;
23222;SDS011;11780;13.904;100.620;2022-09-09T05:49:51;3.58;;;1.80;;
23222;SDS011;11780;13.904;100.620;2022-09-09T05:52:22;3.92;;;1.60;;
23222;SDS011;11780;13.904;100.620;2022-09-09T05:54:57;2.90;;;1.60;;
23222;SDS011;11780;13.904;100.620;2022-09-09T05:57:28;3.95;;;1.75;;
23222;SDS011;11780;13.904;100.620;2022-09-09T05:59:58;4.00;;;1.77;;
23222;SDS011;11780;13.904;100.620;2022-09-09T06:02:39;2.97;;;1.67;;
23222;SDS011;11780;13.904;100.620;2022-09-09T06:05:13;3.95;;;1.70;;
23222;SDS011;11780;13.904;100.620;2022-09-09T06:07:46;4.20;;;1.50;;
23222;SDS011;11780;13.904;100.620;2022-09-09T06:10:17;2.88;;;1.70;;
23222;SDS011;11780;13.904;100.620;2022-09-09T06:13:01;2.72;;;1.38;;
23222;SDS011;11780;13.904;100.620;2022-09-09T06:15:31;1.63;;;1.52;;
23222;SDS011;11780;13.904;100.620;2022-09-09T06:18:04;2.28;;;1.52;;
23222;SDS011;11780;13.904;100.620;2022-09-09T06:20:34;2.17;;;1.55;;
23222;SDS011;11780;13.904;100.620;2022-09-09T06:23:04;2.72;;;1.55;;
23222;SDS011;11780;13.904;100.620;2022-09-09T06:25:34;1.60;;;1.45;;
23222;SDS011;11780;13.904;100.620;2022-09-09T06:28:05;5.07;;;1.55;;
23222;SDS011;11780;13.904;100.620;2022-09-09T06:30:39;3.28;;;1.38;;
23222;SDS011;11780;13.904;100.620;2022-09-09T06:33:09;1.43;;;1.33;;
23222;SDS011;11780;13.904;100.620;2022-09-09T06:35:41;2.78;;;1.35;;
23222;SDS011;11780;13.904;100.620;2022-09-09T06:38:11;3.78;;;1.58;;
23222;SDS011;11780;13.904;100.620;2022-09-09T06:40:42;1.55;;;1.33;;
23222;SDS011;11780;13.904;100.620;2022-09-09T06:43:13;1.80;;;1.40;;
23222;SDS011;11780;13.904;100.620;2022-09-09T06:46:32;2.40;;;1.42;;
23222;SDS011;11780;13.904;100.620;2022-09-09T06:48:45;3.28;;;1.52;;
23222;SDS011;11780;13.904;100.620;2022-09-09T06:51:18;2.20;;;1.40;;
23222;SDS011;11780;13.904;100.620;2022-09-09T06:53:54;2.97;;;1.50;;
23222;SDS011;11780;13.904;100.620;2022-09-09T06:59:07;2.03;;;1.20;;
23222;SDS011;11780;13.904;100.620;2022-09-09T07:01:40;1.73;;;1.40;;
23222;SDS011;11780;13.904;100.620;2022-09-09T07:04:23;2.75;;;1.60;;
23222;SDS011;11780;13.904;100.620;2022-09-09T07:06:55;2.08;;;1.60;;
23222;SDS011;11780;13.904;100.620;2022-09-09T07:09:26;2.63;;;1.57;;
23222;SDS011;11780;13.904;100.620;2022-09-09T07:11:56;1.48;;;1.10;;
23222;SDS011;11780;13.904;100.620;2022-09-09T07:14:32;1.73;;;1.42;;
23222;SDS011;11780;13.904;100.620;2022-09-09T07:17:07;5.00;;;1.52;;
23222;SDS011;11780;13.904;100.620;2022-09-09T07:19:39;2.40;;;1.50;;
23222;SDS011;11780;13.904;100.620;2022-09-09T07:22:09;2.78;;;1.55;;
23222;SDS011;11780;13.904;100.620;2022-09-09T07:24:39;1.85;;;1.40;;
23222;SDS011;11780;13.904;100.620;2022-09-09T07:27:12;2.45;;;1.27;;
23222;SDS011;11780;13.904;100.620;2022-09-09T07:29:42;2.28;;;1.40;;
23222;SDS011;11780;13.904;100.620;2022-09-09T07:32:12;4.23;;;1.60;;
23222;SDS011;11780;13.904;100.620;2022-09-09T07:34:43;2.05;;;1.73;;
23222;SDS011;11780;13.904;100.620;2022-09-09T07:37:14;4.80;;;1.60;;
23222;SDS011;11780;13.904;100.620;2022-09-09T07:39:45;1.88;;;1.40;;
23222;SDS011;11780;13.904;100.620;2022-09-09T07:42:18;3.00;;;1.85;;
23222;SDS011;11780;13.904;100.620;2022-09-09T07:44:50;2.30;;;1.80;;
23222;SDS011;11780;13.904;100.620;2022-09-09T07:47:26;1.38;;;1.27;;
23222;SDS011;11780;13.904;100.620;2022-09-09T07:49:58;2.50;;;1.40;;
23222;SDS011;11780;13.904;100.620;2022-09-09T07:52:30;2.75;;;1.40;;
23222;SDS011;11780;13.904;100.620;2022-09-09T07:55:20;4.18;;;1.80;;
23222;SDS011;11780;13.904;100.620;2022-09-09T07:57:56;2.53;;;1.50;;
23222;SDS011;11780;13.904;100.620;2022-09-09T08:00:26;1.55;;;1.40;;
23222;SDS011;11780;13.904;100.620;2022-09-09T08:03:01;3.92;;;1.75;;
23222;SDS011;11780;13.904;100.620;2022-09-09T08:05:33;2.20;;;1.67;;
23222;SDS011;11780;13.904;100.620;2022-09-09T08:08:04;1.92;;;1.60;;
23222;SDS011;11780;13.904;100.620;2022-09-09T08:10:35;3.03;;;1.95;;
23222;SDS011;11780;13.904;100.620;2022-09-09T08:13:10;4.13;;;1.58;;
23222;SDS011;11780;13.904;100.620;2022-09-09T08:15:46;3.40;;;1.60;;
23222;SDS011;11780;13.904;100.620;2022-09-09T08:18:19;4.40;;;1.70;;
23222;SDS011;11780;13.904;100.620;2022-09-09T08:20:49;3.50;;;1.60;;
23222;SDS011;11780;13.904;100.620;2022-09-09T08:23:19;2.05;;;1.80;;
23222;SDS011;11780;13.904;100.620;2022-09-09T08:25:50;2.28;;;1.95;;
23222;SDS011;11780;13.904;100.620;2022-09-09T08:28:20;3.83;;;1.60;;
23222;SDS011;11780;13.904;100.620;2022-09-09T08:30:51;3.53;;;1.83;;
23222;SDS011;11780;13.904;100.620;2022-09-09T08:33:26;2.13;;;1.70;;
23222;SDS011;11780;13.904;100.620;2022-09-09T08:35:57;1.80;;;1.60;;
23222;SDS011;11780;13.904;100.620;2022-09-09T08:38:28;4.63;;;1.70;;
23222;SDS011;11780;13.904;100.620;2022-09-09T08:44:21;1.52;;;1.35;;
23222;SDS011;11780;13.904;100.620;2022-09-09T08:50:02;1.45;;;1.20;;
23222;SDS011;11780;13.904;100.620;2022-09-09T08:53:29;1.65;;;1.30;;
23222;SDS011;11780;13.904;100.620;2022-09-09T08:55:56;3.40;;;1.10;;
23222;SDS011;11780;13.904;100.620;2022-09-09T08:58:47;3.88;;;1.10;;
23222;SDS011;11780;13.904;100.620;2022-09-09T09:09:53;1.08;;;0.98;;
23222;SDS011;11780;13.904;100.620;2022-09-09T09:13:13;3.60;;;1.20;;
23222;SDS011;11780;13.904;100.620;2022-09-09T09:16:00;1.35;;;1.00;;
23222;SDS011;11780;13.904;100.620;2022-09-09T09:18:39;1.55;;;1.02;;
23222;SDS011;11780;13.904;100.620;2022-09-09T09:21:14;2.35;;;1.27;;
23222;SDS011;11780;13.904;100.620;2022-09-09T09:24:00;2.08;;;1.08;;
23222;SDS011;11780;13.904;100.620;2022-09-09T09:26:35;1.27;;;1.10;;
23222;SDS011;11780;13.904;100.620;2022-09-09T09:29:12;0.98;;;0.90;;
23222;SDS011;11780;13.904;100.620;2022-09-09T09:31:51;1.27;;;1.10;;
23222;SDS011;11780;13.904;100.620;2022-09-09T09:34:27;2.08;;;1.20;;
23222;SDS011;11780;13.904;100.620;2022-09-09T09:36:59;1.23;;;1.05;;
23222;SDS011;11780;13.904;100.620;2022-09-09T09:39:33;0.95;;;0.90;;
23222;SDS011;11780;13.904;100.620;2022-09-09T09:42:29;2.85;;;1.40;;
23222;SDS011;11780;13.904;100.620;2022-09-09T09:48:04;1.38;;;0.95;;
23222;SDS011;11780;13.904;100.620;2022-09-09T09:50:46;1.67;;;1.50;;
23222;SDS011;11780;13.904;100.620;2022-09-09T09:53:28;2.08;;;1.15;;
23222;SDS011;11780;13.904;100.620;2022-09-09T10:01:34;1.15;;;1.02;;
23222;SDS011;11780;13.904;100.620;2022-09-09T10:06:48;2.95;;;1.27;;
23222;SDS011;11780;13.904;100.620;2022-09-09T10:12:05;2.95;;;1.67;;
23222;SDS011;11780;13.904;100.620;2022-09-09T10:14:47;2.38;;;1.45;;
23222;SDS011;11780;13.904;100.620;2022-09-09T10:17:47;3.88;;;2.40;;
23222;SDS011;11780;13.904;100.620;2022-09-09T10:23:29;3.58;;;1.80;;
23222;SDS011;11780;13.904;100.620;2022-09-09T10:35:02;2.38;;;1.70;;
23222;SDS011;11780;13.904;100.620;2022-09-09T10:38:39;2.92;;;2.38;;
23222;SDS011;11780;13.904;100.620;2022-09-09T10:52:09;2.53;;;2.33;;
23222;SDS011;11780;13.904;100.620;2022-09-09T10:55:02;2.55;;;2.10;;
23222;SDS011;11780;13.904;100.620;2022-09-09T10:57:49;3.58;;;2.38;;
23222;SDS011;11780;13.904;100.620;2022-09-09T11:00:37;3.47;;;2.15;;
23222;SDS011;11780;13.904;100.620;2022-09-09T11:03:22;3.17;;;2.20;;
23222;SDS011;11780;13.904;100.620;2022-09-09T11:05:57;3.45;;;2.40;;
23222;SDS011;11780;13.904;100.620;2022-09-09T11:08:39;2.65;;;2.45;;
23222;SDS011;11780;13.904;100.620;2022-09-09T11:19:24;2.40;;;2.20;;
23222;SDS011;11780;13.904;100.620;2022-09-09T11:22:08;2.50;;;2.30;;
23222;SDS011;11780;13.904;100.620;2022-09-09T11:24:48;4.13;;;2.30;;
23222;SDS011;11780;13.904;100.620;2022-09-09T11:31:09;3.17;;;2.00;;
23222;SDS011;11780;13.904;100.620;2022-09-09T11:42:26;3.15;;;2.10;;
23222;SDS011;11780;13.904;100.620;2022-09-09T11:44:57;3.67;;;2.40;;
23222;SDS011;11780;13.904;100.620;2022-09-09T11:47:52;2.50;;;2.30;;
23222;SDS011;11780;13.904;100.620;2022-09-09T11:50:36;3.70;;;2.35;;
23222;SDS011;11780;13.904;100.620;2022-09-09T11:58:53;2.85;;;2.25;;
23222;SDS011;11780;13.904;100.620;2022-09-09T12:01:30;3.78;;;2.50;;
23222;SDS011;11780;13.904;100.620;2022-09-09T12:06:46;2.70;;;2.50;;
23222;SDS011;11780;13.904;100.620;2022-09-09T12:09:29;3.40;;;2.78;;
23222;SDS011;11780;13.904;100.620;2022-09-09T12:12:05;2.70;;;2.35;;
23222;SDS011;11780;13.904;100.620;2022-09-09T12:14:44;2.60;;;2.40;;
23222;SDS011;11780;13.904;100.620;2022-09-09T12:17:31;2.17;;;2.08;;
23222;SDS011;11780;13.904;100.620;2022-09-09T12:48:09;3.70;;;2.78;;
23222;SDS011;11780;13.904;100.620;2022-09-09T12:50:49;7.18;;;3.13;;
23222;SDS011;11780;13.904;100.620;2022-09-09T12:53:26;5.35;;;2.80;;
23222;SDS011;11780;13.904;100.620;2022-09-09T12:56:08;4.22;;;3.05;;
23222;SDS011;11780;13.904;100.620;2022-09-09T12:58:48;10.53;;;3.10;;
23222;SDS011;11780;13.904;100.620;2022-09-09T13:01:24;4.75;;;3.22;;
23222;SDS011;11780;13.904;100.620;2022-09-09T13:04:00;6.63;;;3.05;;
23222;SDS011;11780;13.904;100.620;2022-09-09T13:06:32;6.80;;;3.13;;
23222;SDS011;11780;13.904;100.620;2022-09-09T13:09:04;5.78;;;2.90;;
23222;SDS011;11780;13.904;100.620;2022-09-09T13:11:40;3.35;;;3.00;;
23222;SDS011;11780;13.904;100.620;2022-09-09T13:14:18;3.47;;;3.17;;
23222;SDS011;11780;13.904;100.620;2022-09-09T13:16:56;5.10;;;3.60;;
23222;SDS011;11780;13.904;100.620;2022-09-09T13:19:38;4.82;;;3.08;;
23222;SDS011;11780;13.904;100.620;2022-09-09T13:25:03;7.80;;;5.15;;
23222;SDS011;11780;13.904;100.620;2022-09-09T13:28:04;10.45;;;5.97;;
23222;SDS011;11780;13.904;100.620;2022-09-09T13:33:37;7.97;;;5.38;;
23222;SDS011;11780;13.904;100.620;2022-09-09T13:36:09;10.95;;;5.50;;
23222;SDS011;11780;13.904;100.620;2022-09-09T13:41:26;12.55;;;6.68;;
23222;SDS011;11780;13.904;100.620;2022-09-09T13:43:59;13.23;;;6.13;;
23222;SDS011;11780;13.904;100.620;2022-09-09T13:52:01;6.60;;;5.90;;
23222;SDS011;11780;13.904;100.620;2022-09-09T13:54:36;8.93;;;6.55;;
23222;SDS011;11780;13.904;100.620;2022-09-09T13:57:16;10.98;;;6.93;;
23222;SDS011;11780;13.904;100.620;2022-09-09T13:59:48;14.63;;;8.95;;
23222;SDS011;11780;13.904;100.620;2022-09-09T14:02:34;11.27;;;7.53;;
23222;SDS011;11780;13.904;100.620;2022-09-09T14:05:05;11.17;;;7.20;;
23222;SDS011;11780;13.904;100.620;2022-09-09T14:07:35;10.27;;;6.90;;
23222;SDS011;11780;13.904;100.620;2022-09-09T14:10:20;13.25;;;7.50;;
23222;SDS011;11780;13.904;100.620;2022-09-09T14:12:53;12.52;;;6.35;;
23222;SDS011;11780;13.904;100.620;2022-09-09T14:15:35;12.77;;;7.32;;
23222;SDS011;11780;13.904;100.620;2022-09-09T14:18:09;14.07;;;7.43;;
23222;SDS011;11780;13.904;100.620;2022-09-09T14:20:42;10.88;;;7.70;;
23222;SDS011;11780;13.904;100.620;2022-09-09T14:23:13;12.50;;;6.72;;
23222;SDS011;11780;13.904;100.620;2022-09-09T14:25:45;10.63;;;7.20;;
23222;SDS011;11780;13.904;100.620;2022-09-09T14:28:16;10.93;;;6.68;;
23222;SDS011;11780;13.904;100.620;2022-09-09T14:31:07;11.93;;;6.63;;
23222;SDS011;11780;13.904;100.620;2022-09-09T14:33:40;11.50;;;6.85;;
23222;SDS011;11780;13.904;100.620;2022-09-09T14:36:14;9.38;;;6.75;;
23222;SDS011;11780;13.904;100.620;2022-09-09T14:38:45;12.13;;;6.60;;
23222;SDS011;11780;13.904;100.620;2022-09-09T14:41:16;12.97;;;7.37;;
23222;SDS011;11780;13.904;100.620;2022-09-09T14:43:49;10.48;;;7.03;;
23222;SDS011;11780;13.904;100.620;2022-09-09T14:46:23;10.65;;;6.90;;
23222;SDS011;11780;13.904;100.620;2022-09-09T14:48:57;13.07;;;6.70;;
23222;SDS011;11780;13.904;100.620;2022-09-09T14:51:33;10.95;;;7.10;;
23222;SDS011;11780;13.904;100.620;2022-09-09T14:54:04;10.60;;;7.30;;
23222;SDS011;11780;13.904;100.620;2022-09-09T14:59:11;13.75;;;7.20;;
23222;SDS011;11780;13.904;100.620;2022-09-09T15:01:52;10.33;;;7.20;;
23222;SDS011;11780;13.904;100.620;2022-09-09T15:04:22;10.67;;;7.23;;
23222;SDS011;11780;13.904;100.620;2022-09-09T15:06:53;10.87;;;7.37;;
23222;SDS011;11780;13.904;100.620;2022-09-09T15:09:24;12.32;;;7.30;;
23222;SDS011;11780;13.904;100.620;2022-09-09T15:11:54;9.73;;;7.20;;
23222;SDS011;11780;13.904;100.620;2022-09-09T15:14:28;11.23;;;7.43;;
23222;SDS011;11780;13.904;100.620;2022-09-09T15:17:03;11.02;;;6.82;;
23222;SDS011;11780;13.904;100.620;2022-09-09T15:19:33;14.30;;;8.32;;
23222;SDS011;11780;13.904;100.620;2022-09-09T15:22:05;10.35;;;7.50;;
23222;SDS011;11780;13.904;100.620;2022-09-09T15:24:36;11.13;;;7.30;;
23222;SDS011;11780;13.904;100.620;2022-09-09T15:27:10;11.85;;;7.22;;
23222;SDS011;11780;13.904;100.620;2022-09-09T15:29:40;13.52;;;6.97;;
23222;SDS011;11780;13.904;100.620;2022-09-09T15:32:15;9.93;;;7.28;;
23222;SDS011;11780;13.904;100.620;2022-09-09T15:34:47;10.23;;;6.97;;
23222;SDS011;11780;13.904;100.620;2022-09-09T15:37:22;9.35;;;6.80;;
23222;SDS011;11780;13.904;100.620;2022-09-09T15:39:52;14.00;;;7.70;;
23222;SDS011;11780;13.904;100.620;2022-09-09T15:42:22;9.10;;;7.43;;
23222;SDS011;11780;13.904;100.620;2022-09-09T15:44:54;10.10;;;6.55;;
23222;SDS011;11780;13.904;100.620;2022-09-09T15:47:25;9.85;;;6.95;;
23222;SDS011;11780;13.904;100.620;2022-09-09T15:49:57;10.70;;;7.30;;
23222;SDS011;11780;13.904;100.620;2022-09-09T15:52:28;11.15;;;7.43;;
23222;SDS011;11780;13.904;100.620;2022-09-09T15:54:59;8.68;;;6.72;;
23222;SDS011;11780;13.904;100.620;2022-09-09T15:57:31;10.68;;;6.93;;
23222;SDS011;11780;13.904;100.620;2022-09-09T16:00:04;11.30;;;7.07;;
23222;SDS011;11780;13.904;100.620;2022-09-09T16:02:40;8.63;;;6.97;;
23222;SDS011;11780;13.904;100.620;2022-09-09T16:05:11;8.65;;;6.85;;
23222;SDS011;11780;13.904;100.620;2022-09-09T16:07:43;8.27;;;6.82;;
23222;SDS011;11780;13.904;100.620;2022-09-09T16:10:14;14.20;;;7.32;;
23222;SDS011;11780;13.904;100.620;2022-09-09T16:12:44;12.60;;;7.00;;
23222;SDS011;11780;13.904;100.620;2022-09-09T16:15:19;10.80;;;7.00;;
23222;SDS011;11780;13.904;100.620;2022-09-09T16:17:54;11.18;;;7.50;;
23222;SDS011;11780;13.904;100.620;2022-09-09T16:20:25;10.95;;;7.35;;
23222;SDS011;11780;13.904;100.620;2022-09-09T16:22:56;9.13;;;6.60;;
23222;SDS011;11780;13.904;100.620;2022-09-09T16:25:28;10.70;;;7.00;;
23222;SDS011;11780;13.904;100.620;2022-09-09T16:28:01;9.68;;;7.05;;
23222;SDS011;11780;13.904;100.620;2022-09-09T16:30:31;13.02;;;6.80;;
23222;SDS011;11780;13.904;100.620;2022-09-09T16:35:38;10.55;;;6.68;;
23222;SDS011;11780;13.904;100.620;2022-09-09T16:38:10;11.10;;;7.38;;
23222;SDS011;11780;13.904;100.620;2022-09-09T16:40:47;9.57;;;7.40;;
23222;SDS011;11780;13.904;100.620;2022-09-09T16:43:19;11.65;;;7.63;;
23222;SDS011;11780;13.904;100.620;2022-09-09T16:45:53;10.57;;;7.22;;
23222;SDS011;11780;13.904;100.620;2022-09-09T16:48:23;11.85;;;7.90;;
23222;SDS011;11780;13.904;100.620;2022-09-09T16:51:02;14.15;;;6.95;;
23222;SDS011;11780;13.904;100.620;2022-09-09T16:53:41;10.80;;;7.18;;
23222;SDS011;11780;13.904;100.620;2022-09-09T16:56:16;11.05;;;6.65;;
23222;SDS011;11780;13.904;100.620;2022-09-09T16:58:55;10.38;;;6.80;;
23222;SDS011;11780;13.904;100.620;2022-09-09T17:01:29;8.93;;;6.82;;
23222;SDS011;11780;13.904;100.620;2022-09-09T17:04:04;11.80;;;7.88;;
23222;SDS011;11780;13.904;100.620;2022-09-09T17:06:45;10.77;;;6.90;;
23222;SDS011;11780;13.904;100.620;2022-09-09T17:09:20;8.45;;;7.07;;
23222;SDS011;11780;13.904;100.620;2022-09-09T17:11:52;9.02;;;7.40;;
23222;SDS011;11780;13.904;100.620;2022-09-09T17:14:24;10.93;;;7.70;;
23222;SDS011;11780;13.904;100.620;2022-09-09T17:16:54;8.40;;;6.65;;
23222;SDS011;11780;13.904;100.620;2022-09-09T17:19:45;10.15;;;7.38;;
23222;SDS011;11780;13.904;100.620;2022-09-09T17:22:16;10.70;;;7.80;;
23222;SDS011;11780;13.904;100.620;2022-09-09T17:24:47;10.38;;;6.72;;
23222;SDS011;11780;13.904;100.620;2022-09-09T17:27:18;9.90;;;6.85;;
23222;SDS011;11780;13.904;100.620;2022-09-09T17:29:48;11.10;;;7.25;;
23222;SDS011;11780;13.904;100.620;2022-09-09T17:32:18;8.65;;;6.25;;
23222;SDS011;11780;13.904;100.620;2022-09-09T17:34:52;8.73;;;6.68;;
23222;SDS011;11780;13.904;100.620;2022-09-09T17:37:22;7.25;;;5.95;;
23222;SDS011;11780;13.904;100.620;2022-09-09T17:39:53;7.90;;;5.63;;
23222;SDS011;11780;13.904;100.620;2022-09-09T17:42:26;7.43;;;4.95;;
23222;SDS011;11780;13.904;100.620;2022-09-09T17:44:57;7.87;;;5.33;;
23222;SDS011;11780;13.904;100.620;2022-09-09T17:47:28;7.68;;;4.55;;
23222;SDS011;11780;13.904;100.620;2022-09-09T17:50:00;5.35;;;4.13;;
23222;SDS011;11780;13.904;100.620;2022-09-09T17:52:30;7.53;;;3.70;;
23222;SDS011;11780;13.904;100.620;2022-09-09T17:55:01;3.92;;;3.40;;
23222;SDS011;11780;13.904;100.620;2022-09-09T17:57:31;3.42;;;3.13;;
23222;SDS011;11780;13.904;100.620;2022-09-09T18:00:01;5.88;;;3.45;;